createdAt,value
2023-04-27T00:01:19.447Z,100283.72
2023-04-27T00:03:30.304Z,100282.36
2023-04-27T00:05:43.793Z,100282.3
2023-04-27T00:07:54.932Z,100283.52
2023-04-27T00:10:08.974Z,100283.59
2023-04-27T00:12:24.107Z,100286.26
2023-04-27T00:14:36.407Z,100286.92
2023-04-27T00:16:49.167Z,100286.65
2023-04-27T00:19:00.166Z,100283.91
2023-04-27T00:21:14.145Z,100282.45
2023-04-27T00:23:25.107Z,100278.84
2023-04-27T00:25:38.889Z,100281.45
2023-04-27T00:28:03.026Z,100281.72
2023-04-27T00:30:14.966Z,100286.34
2023-04-27T00:32:25.745Z,100291.13
2023-04-27T00:34:36.749Z,100294.17
2023-04-27T00:36:48.987Z,100296.84
2023-04-27T00:39:04.126Z,100297.6
2023-04-27T00:41:16.106Z,100293.22
2023-04-27T00:43:26.805Z,100297.86
2023-04-27T00:45:38.935Z,100296.66
2023-04-27T00:47:50.525Z,100303.8
2023-04-27T00:50:01.645Z,100303.05
2023-04-27T00:52:11.547Z,100302.68
2023-04-27T00:54:23.626Z,100301.72
2023-04-27T00:56:35.649Z,100303.33
2023-04-27T00:58:47.805Z,100306.16
2023-04-27T01:00:58.126Z,100303.95
2023-04-27T01:03:08.972Z,100306.58
2023-04-27T01:05:20.708Z,100306.46
2023-04-27T01:07:35.588Z,100311.32
2023-04-27T01:09:46.182Z,100309.53
2023-04-27T01:11:58.438Z,100311.84
2023-04-27T01:14:08.424Z,100310.09
2023-04-27T01:16:18.221Z,100310.45
2023-04-27T01:18:29.205Z,100317.28
2023-04-27T01:20:39.942Z,100318.48
2023-04-27T01:22:50.184Z,100320.09
2023-04-27T01:25:01.468Z,100317.95
2023-04-27T01:27:13.427Z,100322.45
2023-04-27T01:29:24.328Z,100319.84
2023-04-27T01:31:37.764Z,100319.75
2023-04-27T01:33:48.475Z,100318.52
2023-04-27T01:36:12.821Z,100313.88
2023-04-27T01:38:24.747Z,100317.81
2023-04-27T01:40:34.767Z,100319.3
2023-04-27T01:42:46.185Z,100322.24
2023-04-27T01:44:57.291Z,100324.64
2023-04-27T01:47:10.275Z,100322.95
2023-04-27T01:49:24.754Z,100323.19
2023-04-27T01:51:37.356Z,100325.7
2023-04-27T01:53:48.371Z,100323.67
2023-04-27T01:56:02.867Z,100329.72
2023-04-27T01:58:12.808Z,100326.48
2023-04-27T02:00:24.751Z,100326.17
2023-04-27T02:02:34.740Z,100323.92
2023-04-27T02:04:59.311Z,100325.14
2023-04-27T02:07:11.173Z,100329.36
2023-04-27T02:09:22.230Z,100326.95
2023-04-27T02:11:32.080Z,100329.25
2023-04-27T02:13:42.554Z,100328.73
2023-04-27T02:15:52.700Z,100328.42
2023-04-27T02:18:05.509Z,100331.2
2023-04-27T02:20:17.531Z,100324.58
2023-04-27T02:22:27.972Z,100328.48
2023-04-27T02:24:40.309Z,100323.89
2023-04-27T02:26:50.710Z,100330.62
2023-04-27T02:29:20.590Z,100330.58
2023-04-27T02:31:35.238Z,100330.19
2023-04-27T02:33:48.466Z,100331.34
2023-04-27T02:36:00.122Z,100334.55
2023-04-27T02:38:11.547Z,100336.45
2023-04-27T02:40:21.510Z,100338.44
2023-04-27T02:42:32.686Z,100337.33
2023-04-27T02:44:55.905Z,100339.99
2023-04-27T02:47:05.812Z,100337.91
2023-04-27T02:49:16.557Z,100338.36
2023-04-27T02:51:26.863Z,100337.22
2023-04-27T02:53:40.026Z,100339.28
2023-04-27T02:55:51.157Z,100335.7
2023-04-27T02:58:02.007Z,100337.8
2023-04-27T03:00:12.409Z,100338.04
2023-04-27T03:02:24.488Z,100338.42
2023-04-27T03:04:36.965Z,100337.95
2023-04-27T03:06:46.886Z,100350.09
2023-04-27T03:08:57.927Z,100352.2
2023-04-27T03:11:09.203Z,100351.2
2023-04-27T03:13:19.584Z,100358.44
2023-04-27T03:15:30.347Z,100356.9
2023-04-27T03:17:43.397Z,100354.9
2023-04-27T03:19:58.386Z,100359.59
2023-04-27T03:22:08.589Z,100359.09
2023-04-27T03:24:19.377Z,100357.33
2023-04-27T03:26:43.542Z,100364.02
2023-04-27T03:28:55.004Z,100360.36
2023-04-27T03:31:06.718Z,100363.6
2023-04-27T03:33:17.427Z,100360.77
2023-04-27T03:35:26.946Z,100366.48
2023-04-27T03:37:40.542Z,100361.81
2023-04-27T03:39:52.024Z,100362.16
2023-04-27T03:42:02.887Z,100361.2
2023-04-27T03:44:15.504Z,100362.38
2023-04-27T03:46:27.897Z,100362.87
2023-04-27T03:48:44.585Z,100365.08
2023-04-27T03:50:56.725Z,100368.77
2023-04-27T03:53:11.243Z,100370.89
2023-04-27T03:55:23.465Z,100372.71
2023-04-27T03:57:34.405Z,100375.05
2023-04-27T03:59:46.027Z,100378.45
2023-04-27T04:04:10.874Z,100382.48
2023-04-27T04:06:23.131Z,100382.12
2023-04-27T04:08:34.123Z,100384.2
2023-04-27T04:10:44.668Z,100381.86
2023-04-27T04:12:55.589Z,100384.34
2023-04-27T04:15:07.992Z,100383.06
2023-04-27T04:17:18.824Z,100385.17
2023-04-27T04:19:29.022Z,100386.89
2023-04-27T04:21:39.364Z,100389.36
2023-04-27T04:23:50.646Z,100387.47
2023-04-27T04:26:03.426Z,100387.8
2023-04-27T04:28:14.063Z,100389.88
2023-04-27T04:30:24.628Z,100393.13
2023-04-27T04:32:35.704Z,100397.57
2023-04-27T04:34:50.808Z,100402.1
2023-04-27T04:37:04.528Z,100400.33
2023-04-27T04:39:15.574Z,100406.88
2023-04-27T04:41:26.761Z,100408.11
2023-04-27T04:43:37.748Z,100409.09
2023-04-27T04:45:48.022Z,100413.13
2023-04-27T04:48:00.461Z,100416.23
2023-04-27T04:50:11.647Z,100418.27
2023-04-27T04:52:23.722Z,100412.3
2023-04-27T04:54:37.043Z,100417.13
2023-04-27T04:56:46.944Z,100420.27
2023-04-27T04:58:58.990Z,100421.64
2023-04-27T05:01:09.732Z,100418.41
2023-04-27T05:03:23.467Z,100418.91
2023-04-27T05:05:38.161Z,100418.06
2023-04-27T05:07:52.904Z,100420.86
2023-04-27T05:10:05.563Z,100422
2023-04-27T05:12:16.626Z,100421.56
2023-04-27T05:14:27.864Z,100412.39
2023-04-27T05:16:41.025Z,100410.69
2023-04-27T05:18:51.848Z,100407.28
2023-04-27T05:21:03.822Z,100401.58
2023-04-27T05:23:16.309Z,100401.81
2023-04-27T05:25:30.683Z,100394.86
2023-04-27T05:27:44.202Z,100392.44
2023-04-27T05:29:57.833Z,100393.11
2023-04-27T05:32:23.470Z,100389.42
2023-04-27T05:34:33.747Z,100395.69
2023-04-27T05:36:47.017Z,100391.76
2023-04-27T05:38:59.784Z,100393.02
2023-04-27T05:41:10.545Z,100399.34
2023-04-27T05:43:21.121Z,100398.27
2023-04-27T05:45:34.277Z,100395.81
2023-04-27T05:47:45.778Z,100398.42
2023-04-27T05:50:00.568Z,100401.94
2023-04-27T05:52:11.228Z,100401
2023-04-27T05:54:22.428Z,100396.88
2023-04-27T05:56:36.147Z,100393.03
2023-04-27T05:58:53.967Z,100398.13
2023-04-27T06:01:15.667Z,100390.86
2023-04-27T06:03:34.877Z,100396.81
2023-04-27T06:06:00.519Z,100399.56
2023-04-27T06:08:13.629Z,100401.89
2023-04-27T06:10:37.447Z,100402.09
2023-04-27T06:12:53.809Z,100403.96
2023-04-27T06:15:11.369Z,100405.61
2023-04-27T06:17:26.171Z,100401.66
2023-04-27T06:22:25.491Z,100407.42
2023-04-27T06:28:35.355Z,100407.73
2023-04-27T06:31:34.272Z,100405.09
2023-04-27T06:33:56.354Z,100404.87
2023-04-27T06:36:23.054Z,100409.75
2023-04-27T06:38:52.128Z,100407.53
2023-04-27T06:41:19.072Z,100409.33
2023-04-27T06:43:37.180Z,100412.52
2023-04-27T06:45:52.895Z,100408.14
2023-04-27T06:48:07.161Z,100404.97
2023-04-27T06:50:20.293Z,100408
2023-04-27T06:52:52.275Z,100406.33
2023-04-27T06:55:35.684Z,100408.18
2023-04-27T06:58:05.197Z,100407.18
2023-04-27T07:00:53.227Z,100408.13
2023-04-27T07:03:19.337Z,100407.88
2023-04-27T07:06:03.388Z,100406.47
2023-04-27T07:08:34.313Z,100407.77
2023-04-27T07:10:57.090Z,100404.59
2023-04-27T07:13:17.992Z,100402.89
2023-04-27T07:16:27.498Z,100406.95
2023-04-27T07:18:48.189Z,100411.8
2023-04-27T07:21:08.289Z,100403.49
2023-04-27T07:23:57.249Z,100408.91
2023-04-27T07:34:07.710Z,100414.48
2023-04-27T07:37:19.165Z,100419.11
2023-04-27T07:40:05.301Z,100413.75
2023-04-27T07:42:41.886Z,100416.23
2023-04-27T07:45:09.502Z,100421.66
2023-04-27T07:47:27.304Z,100421.41
2023-04-27T07:49:43.541Z,100419.14
2023-04-27T07:52:12.447Z,100422.3
2023-04-27T07:54:43.588Z,100416.52
2023-04-27T07:57:13.070Z,100417.48
2023-04-27T08:00:21.522Z,100418.38
2023-04-27T08:03:28.366Z,100418.97
2023-04-27T08:05:57.887Z,100429.09
2023-04-27T08:08:12.783Z,100425.93
2023-04-27T08:10:25.682Z,100417.96
2023-04-27T08:12:35.667Z,100424.59
2023-04-27T08:14:46.030Z,100426.98
2023-04-27T08:17:10.542Z,100426.23
2023-04-27T08:19:38.160Z,100429.2
2023-04-27T08:21:52.282Z,100434.59
2023-04-27T08:24:06.127Z,100430.53
2023-04-27T08:26:24.993Z,100434.84
2023-04-27T08:28:45.731Z,100435.13
2023-04-27T08:34:43.943Z,100438.14
2023-04-27T08:37:13.061Z,100428.07
2023-04-27T08:39:37.184Z,100425.84
2023-04-27T08:49:14.487Z,100433.79
2023-04-27T08:52:15.684Z,100441.28
2023-04-27T08:55:24.848Z,100448.13
2023-04-27T09:05:39.341Z,100446.3
2023-04-27T09:08:59.203Z,100446.88
2023-04-27T09:12:11.360Z,100447.31
2023-04-27T10:11:52.602Z,100444.9
2023-04-27T10:30:15.581Z,100432.59
2023-04-27T10:32:41.814Z,100435.08
2023-04-27T11:15:27.844Z,100476.64
2023-04-27T11:17:58.904Z,100478.36
2023-04-27T11:20:21.948Z,100474.9
2023-04-27T11:22:43.384Z,100475.86
2023-04-27T11:26:01.029Z,100469.7
2023-04-27T11:28:15.609Z,100473.99
2023-04-27T11:30:52.306Z,100477.95
2023-04-27T11:33:14.307Z,100474.42
2023-04-27T11:35:41.965Z,100470.73
2023-04-27T11:37:55.646Z,100470.08
2023-04-27T11:40:31.788Z,100477.42
2023-04-27T11:42:54.389Z,100469.57
2023-04-27T11:45:36.274Z,100471.25
2023-04-27T11:48:04.381Z,100467.76
2023-04-27T11:50:31.347Z,100469.08
2023-04-27T11:52:45.806Z,100475.13
2023-04-27T11:55:14.775Z,100479.87
2023-04-27T11:57:29.544Z,100482.09
2023-04-27T11:59:47.707Z,100478.85
2023-04-27T12:09:11.590Z,100475.31
2023-04-27T12:11:58.422Z,100474.13
2023-04-27T12:14:42.187Z,100472.72
2023-04-27T12:23:15.347Z,100475.33
2023-04-27T12:26:06.342Z,100478.92
2023-04-27T12:28:21.124Z,100474.55
2023-04-27T12:30:31.649Z,100476.68
2023-04-27T12:32:42.476Z,100473.56
2023-04-27T12:34:56.824Z,100472.07
2023-04-27T12:37:07.722Z,100469.05
2023-04-27T12:39:22.844Z,100469.13
2023-04-27T12:41:35.308Z,100465.75
2023-04-27T12:43:46.804Z,100469.88
2023-04-27T12:46:03.401Z,100466.2
2023-04-27T12:51:48.926Z,100464.94
2023-04-27T12:54:26.735Z,100466.91
2023-04-27T12:57:08.235Z,100466.7
2023-04-27T12:59:44.905Z,100462.28
2023-04-27T13:02:01.627Z,100468.76
2023-04-27T13:04:25.223Z,100461.52
2023-04-27T13:06:58.734Z,100456.33
2023-04-27T13:09:30.806Z,100459.42
2023-04-27T13:11:47.062Z,100458.36
2023-04-27T13:13:57.862Z,100456.53
2023-04-27T13:16:11.225Z,100460.14
2023-04-27T13:18:28.249Z,100464.37
2023-04-27T13:20:48.069Z,100466.69
2023-04-27T13:23:12.070Z,100467.98
2023-04-27T13:25:34.745Z,100472.65
2023-04-27T13:27:51.004Z,100470.95
2023-04-27T13:30:06.465Z,100479.4
2023-04-27T13:32:19.891Z,100482.47
2023-04-27T13:34:33.642Z,100486.66
2023-04-27T13:36:43.902Z,100488.86
2023-04-27T13:39:00.520Z,100489.32
2023-04-27T13:41:11.544Z,100498.72
2023-04-27T13:43:23.199Z,100495.72
2023-04-27T13:45:34.662Z,100502.64
2023-04-27T13:48:05.879Z,100505.34
2023-04-27T13:50:50.269Z,100507.39
2023-04-27T13:53:46.881Z,100508.86
2023-04-27T13:56:25.027Z,100509.08
2023-04-27T13:59:12.218Z,100507.77
2023-04-27T14:01:53.329Z,100510.38
2023-04-27T14:05:27.281Z,100511.73
2023-04-27T14:07:56.080Z,100511.22
2023-04-27T14:10:21.544Z,100507.44
2023-04-27T14:12:36.115Z,100509.98
2023-04-27T14:14:59.047Z,100505.58
2023-04-27T14:17:18.165Z,100503.48
2023-04-27T14:19:47.984Z,100494.94
2023-04-27T14:22:24.284Z,100500.78
2023-04-27T14:24:46.185Z,100498.4
2023-04-27T14:27:19.428Z,100494.56
2023-04-27T14:29:47.063Z,100496.25
2023-04-27T14:32:04.821Z,100503.61
2023-04-27T14:34:51.894Z,100499.53
2023-04-27T14:37:28.507Z,100500.98
2023-04-27T14:40:16.006Z,100502.22
2023-04-27T14:42:40.748Z,100508.16
2023-04-27T14:45:21.285Z,100509.06
2023-04-27T14:48:04.416Z,100511.19
2023-04-27T14:50:19.276Z,100514.03
2023-04-27T14:52:33.072Z,100509.26
2023-04-27T14:55:00.960Z,100511.98
2023-04-27T14:57:22.747Z,100513.31
2023-04-27T14:59:35.302Z,100516.55
2023-04-27T15:01:45.668Z,100521.92
2023-04-27T15:04:00.238Z,100521.84
2023-04-27T15:06:13.790Z,100516.63
2023-04-27T15:08:25.210Z,100517.2
2023-04-27T15:10:41.447Z,100521.11
2023-04-27T15:13:00.038Z,100522.02
2023-04-27T15:15:26.589Z,100517.97
2023-04-27T15:17:40.231Z,100520.42
2023-04-27T15:20:14.154Z,100512.22
2023-04-27T15:22:27.191Z,100516.06
2023-04-27T15:24:37.829Z,100518.03
2023-04-27T15:26:50.029Z,100520.52
2023-04-27T15:29:13.635Z,100520.44
2023-04-27T15:31:26.144Z,100521.5
2023-04-27T15:33:37.954Z,100523
2023-04-27T15:35:51.208Z,100524.08
2023-04-27T15:38:13.541Z,100522.83
2023-04-27T15:40:27.908Z,100527.7
2023-04-27T15:42:41.464Z,100527.54
2023-04-27T15:44:59.825Z,100521.92
2023-04-27T15:47:17.563Z,100527.56
2023-04-27T15:49:37.783Z,100525.92
2023-04-27T15:52:21.505Z,100527.31
2023-04-27T15:54:37.088Z,100532.55
2023-04-27T15:57:18.082Z,100537.46
2023-04-27T15:59:29.542Z,100535.59
2023-04-27T16:01:44.220Z,100542.06
2023-04-27T16:04:02.307Z,100545.95
2023-04-27T16:06:38.891Z,100547.89
2023-04-27T16:09:01.761Z,100544.8
2023-04-27T16:17:45.762Z,100552.11
2023-04-27T16:28:01.000Z,100562.91
2023-04-27T16:33:51.043Z,100570.63
2023-04-27T16:36:04.444Z,100568.44
2023-04-27T16:38:19.284Z,100570
2023-04-27T16:40:52.866Z,100570.23
2023-04-27T16:43:51.773Z,100564.92
2023-04-27T16:53:03.457Z,100564.08
2023-04-27T17:07:44.090Z,100568.42
2023-04-27T17:10:59.953Z,100566.13
2023-04-27T17:18:57.665Z,100572.38
2023-04-27T17:21:33.103Z,100573.7
2023-04-27T17:23:58.224Z,100571.34
2023-04-27T17:26:28.345Z,100574.13
2023-04-27T17:28:48.364Z,100570.15
2023-04-27T17:31:12.101Z,100573.28
2023-04-27T17:33:36.961Z,100572.29
2023-04-27T17:36:01.565Z,100577.97
2023-04-27T17:38:35.325Z,100576.73
2023-04-27T17:40:47.425Z,100579.34
2023-04-27T17:43:09.752Z,100579
2023-04-27T17:45:28.286Z,100582.56
2023-04-27T17:47:40.919Z,100585.7
2023-04-27T17:50:00.525Z,100584.86
2023-04-27T17:52:30.907Z,100590.09
2023-04-27T17:54:46.068Z,100594.97
2023-04-27T17:57:12.004Z,100593.48
2023-04-27T17:59:26.701Z,100598.86
2023-04-27T18:01:41.727Z,100600.23
2023-04-27T18:04:08.494Z,100603.73
2023-04-27T18:06:25.487Z,100610.36
2023-04-27T18:08:35.187Z,100612.16
2023-04-27T18:11:05.986Z,100617.09
2023-04-27T18:13:44.865Z,100621.7
2023-04-27T18:15:59.501Z,100622.55
2023-04-27T18:21:08.689Z,100625.86
2023-04-27T18:24:03.349Z,100631.2
2023-04-27T18:26:19.192Z,100631.98
2023-04-27T18:28:45.107Z,100629.21
2023-04-27T18:31:09.485Z,100631.3
2023-04-27T18:33:47.066Z,100630.95
2023-04-27T18:36:16.045Z,100633.59
2023-04-27T18:38:44.044Z,100635.28
2023-04-27T18:41:17.107Z,100635.7
2023-04-27T18:43:30.605Z,100637.95
2023-04-27T18:45:48.892Z,100639.19
2023-04-27T18:48:09.102Z,100637.28
2023-04-27T18:50:24.502Z,100641.73
2023-04-27T18:52:39.244Z,100641.64
2023-04-27T18:54:53.261Z,100644.34
2023-04-27T18:57:12.881Z,100647.73
2023-04-27T18:59:32.947Z,100641.27
2023-04-27T19:02:04.454Z,100642.84
2023-04-27T19:04:26.289Z,100644.18
2023-04-27T19:06:41.887Z,100639.8
2023-04-27T19:09:23.766Z,100638.11
2023-04-27T19:12:03.139Z,100640.32
2023-04-27T19:15:02.441Z,100640.28
2023-04-27T19:17:25.197Z,100641.48
2023-04-27T19:19:51.265Z,100646.84
2023-04-27T19:22:28.964Z,100642.41
2023-04-27T19:25:10.820Z,100642.16
2023-04-27T19:27:56.335Z,100649.25
2023-04-27T19:30:57.014Z,100650.66
2023-04-27T19:33:27.787Z,100649.63
2023-04-27T19:38:56.125Z,100652.09
2023-04-27T19:41:40.116Z,100653.28
2023-04-27T19:44:09.283Z,100656.95
2023-04-27T19:46:42.804Z,100656.28
2023-04-27T19:49:19.149Z,100657.48
2023-04-27T19:51:53.829Z,100655.45
2023-04-27T19:54:38.575Z,100662.34
2023-04-27T19:57:23.512Z,100659.94
2023-04-27T20:02:35.430Z,100662.59
2023-04-27T20:05:01.957Z,100664.88
2023-04-27T20:07:40.654Z,100666.37
2023-04-27T20:10:27.685Z,100667.26
2023-04-27T20:13:04.556Z,100666.95
2023-04-27T20:15:51.558Z,100672.61
2023-04-27T20:18:25.723Z,100673.69
2023-04-27T20:20:57.885Z,100669.52
2023-04-27T20:24:04.023Z,100676.95
2023-04-27T20:26:45.263Z,100675.16
2023-04-27T20:29:04.924Z,100682.29
2023-04-27T20:31:55.060Z,100674.61
2023-04-27T20:34:44.721Z,100679.77
2023-04-27T20:37:50.966Z,100682.7
2023-04-27T20:40:42.792Z,100685.73
2023-04-27T20:46:41.410Z,100686.3
2023-04-27T20:49:42.854Z,100687.28
2023-04-27T20:52:12.807Z,100688.94
2023-04-27T20:57:58.542Z,100691.11
2023-04-27T21:00:33.121Z,100695.34
2023-04-27T21:03:09.942Z,100691.86
2023-04-27T21:05:36.384Z,100692.34
2023-04-27T21:08:03.006Z,100693.42
2023-04-27T21:10:29.203Z,100687.13
2023-04-27T21:13:28.207Z,100692.92
2023-04-27T21:16:05.429Z,100698.3
2023-04-27T21:18:41.980Z,100699.13
2023-04-27T21:21:09.165Z,100699.45
2023-04-27T21:26:35.925Z,100700.84
2023-04-27T21:29:23.111Z,100701.91
2023-04-27T21:31:51.127Z,100702.23
2023-04-27T21:34:15.072Z,100701.09
2023-04-27T21:36:53.188Z,100699
2023-04-27T21:39:27.488Z,100703.73
2023-04-27T21:41:51.006Z,100706.82
2023-04-27T21:44:06.621Z,100712.59
2023-04-27T21:46:34.735Z,100712.13
2023-04-27T21:49:00.249Z,100711.88
2023-04-27T21:51:31.447Z,100715.2
2023-04-27T21:54:07.185Z,100713.69
2023-04-27T21:56:39.122Z,100719.86
2023-04-27T21:59:07.391Z,100723.11
2023-04-27T22:07:07.311Z,100719.09
2023-04-27T22:09:43.266Z,100725.47
2023-04-27T22:12:23.705Z,100726.41
2023-04-27T22:15:01.986Z,100729.08
2023-04-27T22:17:27.614Z,100726.31
2023-04-27T22:19:59.011Z,100729.9
2023-04-27T22:22:31.085Z,100729.11
2023-04-27T22:25:07.481Z,100730.05
2023-04-27T22:27:45.535Z,100728.3
2023-04-27T22:30:39.311Z,100726.5
2023-04-27T22:33:15.884Z,100727.17
2023-04-27T22:35:50.667Z,100731.31
2023-04-27T22:38:37.524Z,100727.95
2023-04-27T22:41:08.006Z,100725.41
2023-04-27T22:43:46.394Z,100727.26
2023-04-27T22:46:03.778Z,100727.25
2023-04-27T22:48:32.686Z,100726.88
2023-04-27T22:51:00.489Z,100728.59
2023-04-27T22:53:51.675Z,100729.93
2023-04-27T22:56:27.784Z,100731.09
2023-04-27T22:58:52.267Z,100733.84
2023-04-27T23:01:28.199Z,100733.66
2023-04-27T23:04:03.619Z,100736.7
2023-04-27T23:06:25.303Z,100736.13
2023-04-27T23:09:17.945Z,100735.63
2023-04-27T23:12:07.602Z,100740.16
2023-04-27T23:15:31.045Z,100736.01
2023-04-27T23:17:56.686Z,100739.13
2023-04-27T23:20:34.853Z,100739.73
2023-04-27T23:23:07.706Z,100736.95
2023-04-27T23:26:08.320Z,100739.83
2023-04-27T23:28:36.802Z,100739.13
2023-04-27T23:31:12.804Z,100736.72
2023-04-27T23:33:47.782Z,100734.97
2023-04-27T23:36:13.282Z,100733.42
2023-04-27T23:38:41.964Z,100733.48
2023-04-27T23:41:04.165Z,100734.23
2023-04-27T23:43:30.999Z,100728.82
2023-04-27T23:46:15.831Z,100737.68
2023-04-27T23:48:48.642Z,100738.75
2023-04-27T23:51:11.687Z,100738.17
2023-04-27T23:53:42.185Z,100741.56
2023-04-27T23:56:22.586Z,100740.59
2023-04-27T23:58:48.745Z,100740.84
